Waupaca, WI

2:35 AM CST on December 11, 2016 (GMT -0600)
Waupaca Municipal

Weather History for KPCZ - November, 2010

Change the Weather History Date:

Sunday, November 7, 2010

  Actual Average Record
Temperature  
Mean Temperature 45 °F -  
Max Temperature 60 °F 44 °F 69 °F (1949)
Min Temperature 30 °F 26 °F 0 °F (1991)
Degree Days  
Heating Degree Days 20    
Moisture  
Dew Point 26 °F    
Average Humidity 54    
Maximum Humidity 78    
Minimum Humidity 28    
Precipitation  
Precipitation 0.00 in - - ()
Sea Level Pressure  
Sea Level Pressure 30.07 in    
Wind  
Wind Speed 2 mph (SSE)    
Max Wind Speed 7 mph    
Max Gust Speed -    
Visibility 10 miles    
Events      
Averages and records for this station are not official NWS values.
T = Trace of Precipitation, MM = Missing Value Source: NWS Daily Summary

Daily Weather History Graph

Daily Weather History Graph

Search for Another Location

Airport or City:

Trip Planner

Search our weather history database for the weather conditions in past years. The results will help you decide how hot, cold, wet, or windy it might be!

Date:

Astronomy

Nov. 07, 2010 Rise Set
Actual Time 6:41 AM CST 4:37 PM CST
Civil Twilight 6:10 AM CST 5:08 PM CST
Nautical Twilight 5:35 AM CST 5:43 PM CST
Astronomical Twilight 5:01 AM CST 6:16 PM CST
Moon 8:33 AM CST (11/7) 5:29 PM CST (11/7)
Length of Visible Light 10h 57m
Length of Day
9h 56m
Waxing Crescent, 3% of the Moon is Illuminated
Nov 7
Waxing Crescent
Nov 13
First Quarter
Nov 21
Full
Nov 28
Last Quarter
Dec 5
New

Hourly Weather History & Observations

Time (CST) Temp. Windchill Dew Point Humidity Pressure Visibility Wind Dir Wind Speed Gust Speed Precip Events Conditions
12:16 AM 36.0 °F - 22.6 °F 58% 30.16 in 10.0 mi Calm Calm - N/A   Clear
12:36 AM 34.7 °F 30.6 °F 22.6 °F 61% 30.15 in 10.0 mi South 4.6 mph - N/A   Clear
12:56 AM 35.4 °F - 22.6 °F 60% 30.16 in 10.0 mi Calm Calm - N/A   Clear
1:16 AM 34.7 °F 31.8 °F 22.3 °F 61% 30.16 in 10.0 mi SSE 3.5 mph - N/A   Clear
1:36 AM 33.3 °F - 23.0 °F 66% 30.16 in 10.0 mi Calm Calm - N/A   Clear
1:56 AM 32.0 °F 28.7 °F 22.6 °F 68% 30.15 in 10.0 mi SSE 3.5 mph - N/A   Clear
1:16 AM 32.0 °F 28.7 °F 22.6 °F 68% 30.14 in 10.0 mi SSE 3.5 mph - N/A   Clear
1:36 AM 32.4 °F - 23.0 °F 68% 30.14 in 10.0 mi Calm Calm - N/A   Clear
1:56 AM 32.0 °F 28.7 °F 22.6 °F 68% 30.14 in 10.0 mi SSE 3.5 mph - N/A   Clear
2:16 AM 32.0 °F - 24.1 °F 73% 30.13 in 10.0 mi Calm Calm - N/A   Clear
2:36 AM 32.0 °F - 23.9 °F 72% 30.13 in 10.0 mi Calm Calm - N/A   Clear
2:56 AM 32.2 °F - 23.5 °F 70% 30.12 in 10.0 mi Calm Calm - N/A   Clear
3:16 AM 32.9 °F - 23.0 °F 67% 30.12 in 10.0 mi Calm Calm - N/A   Clear
3:36 AM 32.0 °F - 23.9 °F 72% 30.12 in 10.0 mi Calm Calm - N/A   Clear
3:56 AM 31.1 °F - 23.7 °F 74% 30.12 in 10.0 mi Calm Calm - N/A   Clear
4:16 AM 31.5 °F - 23.7 °F 73% 30.11 in 10.0 mi Calm Calm - N/A   Clear
4:36 AM 32.0 °F - 23.9 °F 72% 30.11 in 10.0 mi Calm Calm - N/A   Clear
4:56 AM 32.9 °F - 23.5 °F 68% 30.11 in 10.0 mi Calm Calm - N/A   Clear
5:16 AM 32.5 °F 29.3 °F 23.7 °F 70% 30.10 in 10.0 mi SSE 3.5 mph - N/A   Clear
5:56 AM 32.0 °F - 23.4 °F 70% 30.09 in 10.0 mi Calm Calm - N/A   Clear
6:16 AM 32.4 °F - 23.9 °F 71% 30.09 in 10.0 mi Calm Calm - N/A   Clear
6:36 AM 32.9 °F - 23.9 °F 69% 30.10 in 10.0 mi Calm Calm - N/A   Clear
6:56 AM 30.2 °F - 23.9 °F 77% 30.10 in 10.0 mi Calm Calm - N/A   Clear
7:16 AM 30.9 °F - 24.8 °F 78% 30.10 in 10.0 mi Calm Calm - N/A   Clear
7:36 AM 32.7 °F - 26.4 °F 78% 30.10 in 10.0 mi Calm Calm - N/A   Clear
7:56 AM 36.0 °F - 26.4 °F 68% 30.11 in 10.0 mi Calm Calm - N/A   Clear
8:16 AM 38.5 °F 36.1 °F 27.0 °F 63% 30.10 in 10.0 mi South 3.5 mph - N/A   Clear
8:36 AM 40.5 °F 38.4 °F 26.8 °F 58% 30.10 in 10.0 mi South 3.5 mph - N/A   Clear
8:56 AM 42.1 °F 40.2 °F 27.0 °F 55% 30.09 in 10.0 mi South 3.5 mph - N/A   Clear
9:16 AM 45.1 °F 42.0 °F 26.4 °F 48% 30.09 in 10.0 mi SSW 5.8 mph - N/A   Clear
9:36 AM 47.3 °F - 25.5 °F 43% 30.10 in 10.0 mi SSW 6.9 mph - N/A   Clear
9:56 AM 49.5 °F - 25.7 °F 40% 30.10 in 10.0 mi SSW 4.6 mph - N/A   Clear
10:16 AM 50.9 °F - 25.0 °F 36% 30.09 in 10.0 mi SW 3.5 mph - N/A   Clear
10:36 AM 51.6 °F - 25.0 °F 36% 30.09 in 10.0 mi SW 4.6 mph - N/A   Clear
10:56 AM 52.9 °F - 25.0 °F 34% 30.08 in 10.0 mi Calm Calm - N/A   Clear
11:16 AM 53.6 °F - 24.4 °F 32% 30.06 in 10.0 mi SSE 3.5 mph - N/A   Clear
11:36 AM 54.5 °F - 24.8 °F 32% 30.06 in 10.0 mi Calm Calm - N/A   Clear
11:56 AM 55.4 °F - 24.8 °F 31% 30.05 in 10.0 mi SSW 3.5 mph - N/A   Clear
12:16 PM 56.5 °F - 25.2 °F 30% 30.04 in 10.0 mi Calm Calm - N/A   Clear
12:36 PM 56.8 °F - 25.3 °F 30% 30.03 in 10.0 mi Calm Calm - N/A   Clear
12:56 PM 57.4 °F - 25.9 °F 30% 30.03 in 10.0 mi South 4.6 mph - N/A   Clear
1:16 PM 58.6 °F - 26.1 °F 29% 30.02 in 10.0 mi Calm Calm - N/A   Clear
1:36 PM 58.5 °F - 25.5 °F 28% 30.02 in 10.0 mi Calm Calm - N/A   Clear
1:56 PM 59.4 °F - 26.1 °F 28% 30.02 in 10.0 mi South 4.6 mph - N/A   Clear
2:16 PM 60.1 °F - 26.2 °F 28% 30.01 in 10.0 mi SSE 3.5 mph - N/A   Clear
2:36 PM 60.1 °F - 26.8 °F 28% 30.01 in 10.0 mi Calm Calm - N/A   Clear
2:56 PM 60.6 °F - 27.1 °F 28% 30.01 in 10.0 mi SE 3.5 mph - N/A   Clear
3:16 PM 60.3 °F - 26.4 °F 28% 30.02 in 10.0 mi ESE 3.5 mph - N/A   Clear
3:36 PM 59.2 °F - 27.3 °F 30% 30.02 in 10.0 mi ESE 4.6 mph - N/A   Clear
3:56 PM 56.3 °F - 29.1 °F 35% 30.02 in 3.0 mi East 3.5 mph - N/A   Haze
4:16 PM 54.7 °F - 29.3 °F 38% 30.02 in 2.0 mi East 4.6 mph - N/A   Haze
4:36 PM 51.8 °F - 29.7 °F 43% 30.02 in 1.8 mi ESE 3.5 mph - N/A   Haze
5:16 PM 48.9 °F - 29.5 °F 47% 30.03 in 5.0 mi Calm Calm - N/A   Haze
5:36 PM 47.7 °F - 30.0 °F 50% 30.03 in 10.0 mi Calm Calm - N/A   Clear
5:56 PM 47.3 °F - 29.8 °F 51% 30.03 in 10.0 mi Calm Calm - N/A   Clear
6:16 PM 44.4 °F - 29.8 °F 57% 30.02 in 10.0 mi Calm Calm - N/A   Clear
6:36 PM 44.2 °F - 29.8 °F 57% 30.02 in 10.0 mi Calm Calm - N/A   Clear
6:56 PM 42.4 °F - 30.2 °F 62% 30.01 in 10.0 mi Calm Calm - N/A   Clear
7:16 PM 42.6 °F - 30.0 °F 61% 30.01 in 10.0 mi Calm Calm - N/A   Clear
7:36 PM 43.7 °F - 29.8 °F 58% 30.01 in 10.0 mi Calm Calm - N/A   Clear
7:56 PM 43.7 °F - 30.2 °F 59% 30.00 in 10.0 mi Calm Calm - N/A   Clear
8:16 PM 41.5 °F - 30.2 °F 64% 30.01 in 10.0 mi Calm Calm - N/A   Clear
8:36 PM 41.2 °F - 30.6 °F 66% 30.01 in 10.0 mi Calm Calm - N/A   Clear
8:56 PM 38.7 °F - 30.7 °F 73% 30.01 in 10.0 mi Calm Calm - N/A   Clear
9:16 PM 37.8 °F - 31.1 °F 77% 30.01 in 10.0 mi Calm Calm - N/A   Clear
9:36 PM 39.4 °F - 31.1 °F 72% 30.01 in 10.0 mi Calm Calm - N/A   Clear
9:56 PM 37.6 °F - 30.6 °F 76% 30.01 in 10.0 mi Calm Calm - N/A   Clear
10:16 PM 37.9 °F - 30.7 °F 75% 30.01 in 10.0 mi Calm Calm - N/A   Clear
10:36 PM 37.6 °F - 30.2 °F 75% 30.01 in 10.0 mi Calm Calm - N/A   Clear
10:56 PM 37.8 °F - 30.4 °F 75% 30.01 in 10.0 mi Calm Calm - N/A   Clear